Time;durP1;ratioP1;P1;durP2;ratioP2;P2;SDS_P1;SDS_P2;PMS_P1;PMS_P2;Temp;Humidity;BMP_temperature;BMP_pressure;BME280_temperature;BME280_humidity;BME280_pressure;Samples;Min_cycle;Max_cycle;Signal;HPM_P1;HPM_P2
2022/04/19 00:01:00;;;;;;;3.97;2.20;;;4.30;96.60;5.00;93778.00;;;;7397686;19;20141;-76
2022/04/19 00:03:27;;;;;;;2.27;1.70;;;4.30;74.00;4.90;93749.00;;;;7395467;19;20129;-76
2022/04/19 00:06:01;;;;;;;2.50;2.10;;;4.30;93.10;4.90;93765.00;;;;7394628;19;20129;-76
2022/04/19 00:08:28;;;;;;;2.97;2.17;;;4.30;79.20;4.80;93758.00;;;;7399017;19;20120;-76
2022/04/19 00:10:55;;;;;;;3.07;2.30;;;4.30;99.90;5.00;93764.00;;;;7393689;19;20129;-76
2022/04/19 00:13:30;;;;;;;3.63;2.10;;;4.30;56.40;4.90;93745.00;;;;7399679;19;20179;-76
2022/04/19 00:16:00;;;;;;;3.53;2.10;;;4.20;83.20;4.90;93767.00;;;;7396409;19;20137;-76
2022/04/19 00:18:29;;;;;;;5.63;2.23;;;4.20;85.80;4.90;93761.00;;;;7395705;19;20262;-76
2022/04/19 00:21:09;;;;;;;2.97;2.30;;;4.20;68.20;4.80;93773.00;;;;7394507;19;20141;-76
2022/04/19 00:23:36;;;;;;;3.07;2.50;;;4.20;99.90;4.80;93748.00;;;;7394386;19;20172;-76
2022/04/19 00:26:09;;;;;;;2.83;1.97;;;4.20;99.90;4.60;93747.00;;;;7397654;19;20447;-76
2022/04/19 00:28:36;;;;;;;6.43;2.07;;;4.10;99.90;4.70;93758.00;;;;7395410;19;20128;-76
2022/04/19 00:31:04;;;;;;;3.50;2.20;;;4.20;99.90;4.60;93765.00;;;;7394273;19;20137;-75
2022/04/19 00:33:44;;;;;;;3.20;2.40;;;4.10;99.90;4.70;93723.00;;;;7394506;19;20150;-75
2022/04/19 00:36:13;;;;;;;3.83;2.10;;;4.10;99.90;4.70;93738.00;;;;7395346;19;20611;-75
2022/04/19 00:38:47;;;;;;;3.03;1.93;;;4.10;99.90;4.70;93723.00;;;;7394227;19;20143;-76
2022/04/19 00:41:16;;;;;;;2.63;2.10;;;4.10;99.90;4.70;93744.00;;;;7394001;19;20500;-76
2022/04/19 00:43:44;;;;;;;3.00;2.17;;;4.10;99.90;4.70;93750.00;;;;7395921;19;20211;-75
2022/04/19 00:46:17;;;;;;;2.80;2.40;;;4.10;99.90;4.70;93746.00;;;;7397156;19;20634;-77
2022/04/19 00:48:44;;;;;;;4.20;2.40;;;4.00;99.90;4.60;93713.00;;;;7392272;19;20514;-77
2022/04/19 00:51:13;;;;;;;5.30;2.43;;;4.00;99.90;4.80;93727.00;;;;7393523;19;20137;-77
2022/04/19 00:53:48;;;;;;;3.97;2.43;;;4.00;99.90;4.90;93711.00;;;;7396716;19;20129;-77
2022/04/19 00:56:16;;;;;;;2.47;1.97;;;4.10;99.90;4.90;93715.00;;;;7393906;19;20145;-77
2022/04/19 00:58:43;;;;;;;3.23;2.30;;;4.20;99.90;5.10;93723.00;;;;7392294;19;20129;-76
2022/04/19 01:01:17;;;;;;;2.50;2.17;;;4.30;88.50;5.20;93735.00;;;;7393716;19;20162;-76
2022/04/19 01:03:44;;;;;;;3.33;2.20;;;4.40;86.80;5.00;93737.00;;;;7397550;19;20144;-76
2022/04/19 01:06:11;;;;;;;7.50;2.60;;;4.40;99.90;5.50;93734.00;;;;7393436;19;20164;-76
2022/04/19 01:08:45;;;;;;;4.27;2.73;;;4.50;1.00;5.60;93717.00;;;;7396771;19;20147;-77
2022/04/19 01:14:23;;;;;;;3.03;2.30;;;5.00;1.00;6.00;93724.00;;;;7389545;19;20145;-76
2022/04/19 01:16:51;;;;;;;2.97;2.40;;;5.10;1.00;6.00;93689.00;;;;7392900;19;20148;-75
2022/04/19 01:19:18;;;;;;;2.97;2.07;;;5.20;1.00;5.90;93718.00;;;;7391734;19;20228;-75
2022/04/19 01:22:00;;;;;;;3.17;2.30;;;5.10;1.00;5.90;93715.00;;;;7395277;19;20224;-76
2022/04/19 01:24:28;;;;;;;2.80;2.13;;;5.10;1.00;5.60;93689.00;;;;7393814;19;20209;-76
2022/04/19 01:27:01;;;;;;;2.90;2.10;;;5.00;1.00;5.50;93677.00;;;;7393398;19;20488;-76
2022/04/19 01:29:28;;;;;;;2.80;1.90;;;5.00;1.00;5.10;93724.00;;;;7390545;19;20531;-76
2022/04/19 01:32:06;;;;;;;1.97;1.77;;;4.90;1.00;5.00;93676.00;;;;7392635;19;20481;-76
2022/04/19 01:34:40;;;;;;;3.60;2.17;;;4.70;1.00;4.80;93696.00;;;;7394770;19;20160;-76
2022/04/19 01:37:07;;;;;;;2.83;2.10;;;4.60;3.30;4.60;93716.00;;;;7396055;19;20125;-76
2022/04/19 01:42:27;;;;;;;3.43;2.30;;;4.30;29.30;4.40;93690.00;;;;7391307;19;20140;-76
2022/04/19 01:44:54;;;;;;;4.03;2.37;;;4.10;99.90;4.90;93655.00;;;;7393362;19;20161;-76
2022/04/19 01:47:21;;;;;;;4.37;2.67;;;4.20;68.70;4.90;93663.00;;;;7394400;19;20129;-75
2022/04/19 01:49:54;;;;;;;2.90;2.23;;;4.20;80.10;5.20;93649.00;;;;7392479;19;20121;-76
2022/04/19 01:52:21;;;;;;;3.40;2.40;;;4.30;19.50;5.10;93678.00;;;;7391758;19;20144;-75
2022/04/19 01:54:51;;;;;;;3.70;2.30;;;4.40;24.20;4.80;93669.00;;;;7398294;19;20161;-76
2022/04/19 01:57:25;;;;;;;4.67;2.27;;;4.30;49.60;4.60;93693.00;;;;7392304;19;20198;-75
2022/04/19 01:59:53;;;;;;;3.77;2.70;;;4.20;79.30;4.80;93692.00;;;;7392443;19;20148;-76
2022/04/19 02:02:27;;;;;;;4.33;2.87;;;4.20;65.90;4.90;93665.00;;;;7393594;19;20145;-75
2022/04/19 02:05:01;;;;;;;2.70;2.30;;;4.20;77.70;5.10;93685.00;;;;7394047;19;20595;-76
2022/04/19 02:07:28;;;;;;;4.47;3.00;;;4.30;65.40;5.10;93658.00;;;;7392568;19;20145;-75
2022/04/19 02:09:55;;;;;;;5.60;2.30;;;4.30;58.80;4.90;93658.00;;;;7386890;19;20591;-75
2022/04/19 02:12:30;;;;;;;4.90;2.63;;;4.30;99.90;4.60;93684.00;;;;7396520;19;20209;-76
2022/04/19 02:14:57;;;;;;;3.60;2.20;;;4.20;99.90;4.40;93685.00;;;;7392926;19;20180;-76
2022/04/19 02:17:24;;;;;;;3.87;2.50;;;4.00;99.90;4.40;93698.00;;;;7391383;19;20140;-76
2022/04/19 02:20:11;;;;;;;3.17;2.73;;;4.00;99.90;4.70;93640.00;;;;7389804;19;20638;-75
2022/04/19 02:22:39;;;;;;;5.90;3.00;;;4.00;99.90;5.10;93653.00;;;;7391874;19;20140;-76
2022/04/19 02:25:16;;;;;;;4.83;3.03;;;4.20;92.40;4.90;93675.00;;;;7392762;19;20135;-76
2022/04/19 02:27:44;;;;;;;3.40;2.70;;;4.20;99.90;5.20;93678.00;;;;7392531;19;20157;-76
2022/04/19 02:30:14;;;;;;;5.90;2.77;;;4.20;29.90;5.00;93677.00;;;;7391455;19;20211;-75
2022/04/19 02:32:51;;;;;;;2.97;2.50;;;4.20;73.60;5.00;93679.00;;;;7393279;19;20120;-76
2022/04/19 02:35:20;;;;;;;3.50;2.17;;;4.30;53.80;5.30;93682.00;;;;7392328;19;20128;-76
2022/04/19 02:37:57;;;;;;;3.80;2.60;;;4.40;18.80;5.40;93676.00;;;;7389976;19;20133;-75
2022/04/19 02:40:26;;;;;;;5.37;3.00;;;4.50;12.90;5.10;93663.00;;;;7390393;19;20477;-75
2022/04/19 02:42:54;;;;;;;5.43;2.53;;;4.40;41.70;5.30;93658.00;;;;7392831;19;20579;-76
2022/04/19 02:45:28;;;;;;;4.07;3.13;;;4.50;1.00;5.60;93641.00;;;;7394287;19;20152;-76
2022/04/19 02:48:05;;;;;;;5.60;2.97;;;4.60;1.00;5.20;93664.00;;;;7389463;19;20898;-76
2022/04/19 02:50:45;;;;;;;3.67;2.50;;;4.60;1.00;5.30;93660.00;;;;7390347;19;20124;-76
2022/04/19 02:53:13;;;;;;;5.50;2.87;;;4.50;27.80;5.30;93655.00;;;;7392407;19;20125;-76
2022/04/19 02:55:49;;;;;;;5.13;2.83;;;4.60;25.20;5.00;93640.00;;;;7390589;19;20139;-76
2022/04/19 02:58:16;;;;;;;4.13;2.83;;;4.50;43.80;5.00;93618.00;;;;7389888;19;20129;-76
2022/04/19 03:00:43;;;;;;;5.17;3.37;;;4.40;50.40;4.80;93636.00;;;;7391191;19;20137;-76
2022/04/19 03:03:17;;;;;;;4.77;3.00;;;4.30;68.10;5.10;93604.00;;;;7394858;19;20133;-76
2022/04/19 03:05:44;;;;;;;3.63;2.90;;;4.40;26.20;5.30;93626.00;;;;7389701;19;20166;-75
2022/04/19 03:08:11;;;;;;;4.80;3.40;;;4.50;7.40;5.20;93650.00;;;;7391764;19;20149;-76
2022/04/19 03:10:45;;;;;;;4.53;3.23;;;4.50;23.40;5.30;93620.00;;;;7389845;19;20175;-76
2022/04/19 03:13:12;;;;;;;6.47;4.00;;;4.50;12.00;5.40;93620.00;;;;7391160;19;20128;-76
2022/04/19 03:15:39;;;;;;;4.13;3.20;;;4.50;1.00;5.20;93630.00;;;;7389526;19;20137;-76
2022/04/19 03:18:26;;;;;;;6.10;3.93;;;4.50;51.40;4.90;93611.00;;;;7390600;19;20591;-76
2022/04/19 03:21:01;;;;;;;5.90;3.73;;;4.40;13.70;5.40;93639.00;;;;7392089;19;20117;-76
2022/04/19 03:29:14;;;;;;;4.67;3.73;;;4.70;1.00;5.50;93638.00;;;;7395623;19;20137;-76
2022/04/19 03:31:41;;;;;;;7.47;3.83;;;4.70;1.00;5.30;93636.00;;;;7397905;19;20136;-75
2022/04/19 03:34:08;;;;;;;6.37;3.33;;;4.70;1.00;5.20;93610.00;;;;7396546;19;20611;-74
2022/04/19 03:36:46;;;;;;;4.67;3.40;;;4.60;1.00;5.00;93606.00;;;;7400917;19;20144;-76
2022/04/19 03:39:13;;;;;;;5.10;3.50;;;4.60;8.20;5.00;93641.00;;;;7397229;19;20121;-76
2022/04/19 03:41:40;;;;;;;4.97;3.50;;;4.60;9.60;5.20;93613.00;;;;7397304;19;20133;-75
2022/04/19 03:44:14;;;;;;;5.50;3.53;;;4.50;1.00;5.30;93634.00;;;;7398411;19;20117;-75
2022/04/19 03:49:35;;;;;;;4.87;3.63;;;4.70;1.00;5.80;93613.00;;;;7393923;19;20130;-75
2022/04/19 03:52:04;;;;;;;5.10;3.23;;;4.90;1.00;5.80;93618.00;;;;7398186;19;20736;-76
2022/04/19 03:54:34;;;;;;;4.23;3.13;;;5.00;1.00;5.80;93632.00;;;;7401492;19;20610;-74
2022/04/19 03:57:10;;;;;;;6.70;4.00;;;5.10;1.00;6.00;93634.00;;;;7398886;19;20140;-75
2022/04/19 03:59:38;;;;;;;5.00;3.40;;;5.20;1.00;6.00;93607.00;;;;7398774;19;20203;-76
2022/04/19 04:02:06;;;;;;;6.97;3.93;;;5.20;1.00;6.00;93614.00;;;;7394464;19;20140;-75
2022/04/19 04:04:40;;;;;;;5.50;3.73;;;5.30;1.00;5.90;93637.00;;;;7400225;19;20595;-75
2022/04/19 04:07:07;;;;;;;5.87;3.50;;;5.30;1.00;6.00;93616.00;;;;7396722;19;20113;-75
2022/04/19 04:09:37;;;;;;;5.33;3.67;;;5.20;1.00;6.10;93643.00;;;;7394232;19;20172;-76
2022/04/19 04:12:12;;;;;;;5.70;3.63;;;5.40;1.00;6.30;93604.00;;;;7399603;19;20128;-76
2022/04/19 04:14:43;;;;;;;10.67;4.53;;;5.50;1.00;6.20;93630.00;;;;7401632;19;20133;-75
2022/04/19 04:17:11;;;;;;;4.60;3.63;;;5.50;1.00;6.00;93639.00;;;;7399897;19;20164;-76
2022/04/19 04:20:06;;;;;;;6.00;3.67;;;5.50;1.00;5.60;93597.00;;;;7395150;19;20176;-75
2022/04/19 04:22:40;;;;;;;3.80;3.27;;;5.40;1.00;5.50;93647.00;;;;7398613;19;20129;-76
2022/04/19 04:25:18;;;;;;;7.30;3.53;;;5.30;1.00;5.40;93643.00;;;;7395835;19;20598;-76
2022/04/19 04:27:45;;;;;;;6.10;3.97;;;5.10;1.00;5.50;93629.00;;;;7400181;19;20479;-75
2022/04/19 04:30:12;;;;;;;5.67;3.53;;;5.00;1.00;5.50;93643.00;;;;7392776;19;20192;-76
2022/04/19 04:32:46;;;;;;;5.43;3.50;;;5.00;1.00;5.60;93624.00;;;;7396072;19;20548;-76
2022/04/19 04:35:13;;;;;;;6.67;3.47;;;5.00;1.00;5.70;93638.00;;;;7394686;19;20128;-75
2022/04/19 04:37:40;;;;;;;4.63;3.63;;;5.00;1.00;5.70;93637.00;;;;7391585;19;20517;-76
2022/04/19 04:40:20;;;;;;;7.00;3.40;;;5.00;1.00;5.70;93648.00;;;;7396363;19;20149;-75
2022/04/19 04:42:47;;;;;;;6.47;3.23;;;5.00;1.00;5.50;93636.00;;;;7395163;19;20212;-75
2022/04/19 04:45:21;;;;;;;5.13;3.50;;;5.00;1.00;5.40;93608.00;;;;7398691;19;20154;-75
2022/04/19 04:50:40;;;;;;;4.60;3.37;;;4.80;1.00;5.40;93638.00;;;;7396473;19;20152;-76
2022/04/19 04:53:08;;;;;;;5.20;3.10;;;4.70;1.00;5.30;93638.00;;;;7393956;19;20184;-76
2022/04/19 04:55:35;;;;;;;3.87;3.00;;;4.70;1.00;5.40;93614.00;;;;7394016;19;20188;-74
2022/04/19 04:58:12;;;;;;;3.87;2.83;;;4.70;1.00;5.50;93651.00;;;;7394948;19;20170;-76
2022/04/19 05:00:42;;;;;;;3.60;2.90;;;4.80;1.00;5.40;93640.00;;;;7394263;19;20168;-76
2022/04/19 05:03:09;;;;;;;4.77;2.80;;;4.70;1.00;5.40;93644.00;;;;7392204;19;20635;-75
2022/04/19 05:05:42;;;;;;;2.87;2.13;;;4.70;3.40;5.30;93645.00;;;;7390521;19;20145;-74
2022/04/19 05:08:12;;;;;;;3.60;2.77;;;4.60;15.90;5.50;93642.00;;;;7391007;19;20589;-76
2022/04/19 05:10:39;;;;;;;3.17;2.20;;;4.60;21.80;5.70;93633.00;;;;7387865;19;20141;-75
2022/04/19 05:13:12;;;;;;;3.00;2.40;;;4.80;1.00;6.10;93626.00;;;;7392514;19;20591;-76
2022/04/19 05:15:42;;;;;;;3.70;2.27;;;5.00;1.00;6.20;93648.00;;;;7394115;19;20598;-75
2022/04/19 05:18:09;;;;;;;3.00;2.50;;;5.20;1.00;6.40;93649.00;;;;7395122;19;20505;-76
2022/04/19 05:20:49;;;;;;;5.63;2.30;;;5.30;1.00;6.60;93650.00;;;;7390571;19;20172;-76
2022/04/19 05:23:16;;;;;;;4.60;2.30;;;5.50;1.00;6.70;93621.00;;;;7392747;19;20502;-76
2022/04/19 05:25:50;;;;;;;4.83;1.90;;;5.60;1.00;7.00;93644.00;;;;7391268;19;20450;-76
2022/04/19 05:28:17;;;;;;;4.20;2.47;;;5.80;1.00;7.30;93640.00;;;;7395300;19;20511;-76
2022/04/19 05:30:44;;;;;;;4.70;2.10;;;6.00;1.00;7.50;93614.00;;;;7394522;19;20141;-76
2022/04/19 05:33:18;;;;;;;2.57;2.07;;;6.20;1.00;7.50;93655.00;;;;7393322;19;20591;-77
2022/04/19 05:35:45;;;;;;;3.03;2.00;;;6.40;1.00;7.50;93641.00;;;;7396231;19;20176;-76
2022/04/19 05:38:12;;;;;;;2.60;1.90;;;6.50;1.00;7.40;93645.00;;;;7392370;19;21203;-77
2022/04/19 05:40:46;;;;;;;2.67;2.10;;;6.50;1.00;7.20;93627.00;;;;7392905;19;20599;-77
2022/04/19 05:43:13;;;;;;;3.23;2.13;;;6.50;1.00;7.40;93639.00;;;;7394858;19;20485;-76
2022/04/19 05:45:40;;;;;;;3.17;1.83;;;6.60;1.00;7.60;93656.00;;;;7392327;19;20475;-77
2022/04/19 05:48:14;;;;;;;2.80;2.23;;;6.70;1.00;7.80;93621.00;;;;7393415;19;20981;-76
2022/04/19 05:50:42;;;;;;;2.77;1.93;;;6.80;1.00;7.90;93639.00;;;;7390926;19;20129;-76
2022/04/19 05:53:09;;;;;;;2.60;1.90;;;6.90;1.00;7.80;93654.00;;;;7398108;19;20452;-77
2022/04/19 05:55:43;;;;;;;2.80;2.17;;;6.90;1.00;8.10;93634.00;;;;7394238;19;20152;-76
2022/04/19 05:58:10;;;;;;;4.23;2.00;;;7.10;1.00;8.40;93644.00;;;;7396086;19;20137;-76
2022/04/19 06:00:37;;;;;;;2.47;2.20;;;7.20;1.00;8.90;93631.00;;;;7393819;19;20124;-77
2022/04/19 06:05:57;;;;;;;3.00;2.23;;;7.80;1.00;9.80;93669.00;;;;7392790;19;20121;-75
2022/04/19 06:08:30;;;;;;;4.37;2.50;;;8.10;1.00;10.40;93644.00;;;;7394083;19;20161;-77
2022/04/19 06:10:57;;;;;;;3.33;2.20;;;8.50;1.00;10.60;93665.00;;;;7391330;19;20164;-78
2022/04/19 06:13:25;;;;;;;2.77;2.40;;;8.70;1.00;10.80;93649.00;;;;7391594;19;20124;-77
2022/04/19 06:16:15;;;;;;;2.80;2.30;;;9.00;1.00;11.00;93659.00;;;;7390414;19;20136;-77
2022/04/19 06:18:49;;;;;;;5.53;2.53;;;9.20;1.00;11.40;93638.00;;;;7393822;19;20587;-77
2022/04/19 06:21:29;;;;;;;3.33;2.53;;;9.40;1.00;11.50;93630.00;;;;7394871;19;20176;-77
2022/04/19 06:23:56;;;;;;;3.93;2.50;;;9.70;1.00;11.80;93665.00;;;;7391218;19;20129;-77
2022/04/19 06:26:33;;;;;;;3.80;2.70;;;9.80;1.00;12.30;93652.00;;;;7393983;19;20497;-77
2022/04/19 06:29:01;;;;;;;5.45;2.47;;;10.10;1.00;12.60;93671.00;;;;7391824;19;20156;-78
2022/04/19 06:31:28;;;;;;;4.45;2.40;;;10.30;1.00;12.90;93673.00;;;;7391333;19;20178;-77
2022/04/19 06:34:02;;;;;;;4.78;2.28;;;10.50;1.00;13.40;93652.00;;;;7393790;19;20124;-77
2022/04/19 06:36:29;;;;;;;4.55;2.80;;;10.70;1.00;13.70;93647.00;;;;7390001;19;20133;-77
2022/04/19 06:38:59;;;;;;;3.85;2.50;;;10.90;1.00;13.90;93663.00;;;;7389955;19;20132;-78
2022/04/19 06:41:33;;;;;;;6.13;2.88;;;11.20;1.00;14.30;93664.00;;;;7391310;19;20478;-77
2022/04/19 06:44:00;;;;;;;3.33;2.55;;;11.50;99.90;14.50;93678.00;;;;7394273;19;20145;-77
2022/04/19 06:46:28;;;;;;;3.90;2.63;;;11.60;99.90;14.30;93679.00;;;;7389269;19;20145;-77
2022/04/19 06:49:07;;;;;;;4.10;2.92;;;11.70;99.90;14.30;93655.00;;;;7391477;19;20172;-75
2022/04/19 06:51:34;;;;;;;2.78;2.45;;;11.90;99.90;14.40;93659.00;;;;7391529;19;20168;-76
2022/04/19 06:54:09;;;;;;;3.30;2.70;;;11.90;99.90;14.70;93645.00;;;;7390244;19;20132;-77
2022/04/19 06:56:36;;;;;;;3.08;2.28;;;12.00;99.90;14.70;93660.00;;;;7396743;19;20183;-77
2022/04/19 06:59:03;;;;;;;4.45;2.80;;;12.10;99.90;15.20;93654.00;;;;7398222;19;20152;-75
2022/04/19 07:01:40;;;;;;;3.60;2.70;;;12.30;99.90;15.20;93675.00;;;;7397956;19;20154;-77
2022/04/19 07:04:09;;;;;;;3.25;2.72;;;12.40;99.90;15.20;93667.00;;;;7397081;19;20523;-78
2022/04/19 07:06:36;;;;;;;5.05;2.70;;;12.60;99.90;15.60;93659.00;;;;7397116;19;20141;-76
2022/04/19 07:09:10;;;;;;;5.30;2.80;;;12.70;99.90;15.70;93675.00;;;;7396665;19;20167;-77
2022/04/19 07:11:37;;;;;;;6.90;2.83;;;12.90;99.90;15.90;93672.00;;;;7398982;19;20121;-77
2022/04/19 07:14:05;;;;;;;2.80;2.50;;;13.10;99.90;16.40;93656.00;;;;7397139;19;20247;-77
2022/04/19 07:16:38;;;;;;;3.97;2.67;;;13.20;99.90;16.30;93679.00;;;;7397446;19;20481;-76
2022/04/19 07:19:18;;;;;;;3.53;2.60;;;13.40;99.90;16.60;93684.00;;;;7398870;19;20145;-76
2022/04/19 07:27:33;;;;;;;4.13;2.30;;;13.50;99.90;16.70;93674.00;;;;7398514;19;20121;-77
2022/04/19 07:30:01;;;;;;;3.63;2.67;;;13.70;99.90;16.90;93654.00;;;;7395126;19;20133;-78
2022/04/19 07:32:28;;;;;;;3.50;2.80;;;13.90;99.90;16.80;93687.00;;;;7394174;19;20141;-77
2022/04/19 07:35:03;;;;;;;3.50;2.70;;;13.80;99.90;17.00;93684.00;;;;7401245;19;20152;-76
2022/04/19 07:37:30;;;;;;;5.18;2.60;;;13.80;99.90;17.00;93682.00;;;;7396183;19;20632;-78
2022/04/19 07:39:57;;;;;;;3.20;2.70;;;14.00;99.90;16.90;93675.00;;;;7396286;19;20124;-76
2022/04/19 07:42:31;;;;;;;3.10;2.35;;;14.40;99.90;17.10;93656.00;;;;7398577;19;20189;-76
2022/04/19 07:44:58;;;;;;;3.03;2.40;;;14.50;99.90;17.30;93659.00;;;;7397840;19;20141;-78
2022/04/19 07:47:25;;;;;;;3.08;2.78;;;14.60;99.90;16.80;93663.00;;;;7395172;19;20133;-77
2022/04/19 07:49:59;;;;;;;3.38;2.75;;;14.60;99.90;15.70;93670.00;;;;7395057;19;20465;-76
2022/04/19 07:52:26;;;;;;;4.00;2.50;;;14.70;99.90;16.40;93653.00;;;;7401130;19;20144;-76
2022/04/19 07:54:53;;;;;;;4.50;2.85;;;14.50;99.90;16.50;93681.00;;;;7398223;19;20591;-77
2022/04/19 07:57:27;;;;;;;4.68;2.47;;;14.70;99.90;17.00;93664.00;;;;7395228;19;20634;-77
2022/04/19 07:59:54;;;;;;;4.13;2.70;;;15.00;99.90;18.00;93653.00;;;;7396153;19;20497;-75
2022/04/19 08:02:21;;;;;;;3.28;2.63;;;15.30;99.90;17.90;93669.00;;;;7394883;19;20137;-77
2022/04/19 08:04:55;;;;;;;2.80;2.50;;;15.40;99.90;17.80;93654.00;;;;7395719;19;20140;-75
2022/04/19 08:07:22;;;;;;;4.80;2.53;;;15.60;99.90;18.00;93668.00;;;;7395018;19;20623;-76
2022/04/19 08:09:49;;;;;;;2.50;2.30;;;15.80;99.90;18.60;93660.00;;;;7392937;19;20157;-76
2022/04/19 08:12:23;;;;;;;2.42;2.20;;;15.90;99.90;18.80;93669.00;;;;7395373;19;20208;-77
2022/04/19 08:14:50;;;;;;;3.50;2.45;;;16.10;99.90;19.20;93671.00;;;;7395367;19;20140;-78
2022/04/19 08:17:18;;;;;;;4.75;2.75;;;16.20;99.90;19.20;93657.00;;;;7396488;19;20623;-76
2022/04/19 08:20:04;;;;;;;3.33;2.40;;;16.30;99.90;18.70;93672.00;;;;7393945;19;20179;-77
2022/04/19 08:22:38;;;;;;;3.00;2.50;;;16.60;99.90;18.90;93663.00;;;;7396170;19;20133;-76
2022/04/19 08:25:12;;;;;;;3.50;2.10;;;16.20;99.90;19.20;93657.00;;;;7396374;19;20140;-76
2022/04/19 08:27:42;;;;;;;2.85;2.45;;;16.30;99.90;19.30;93643.00;;;;7395798;19;20580;-75
2022/04/19 08:30:10;;;;;;;2.65;2.33;;;16.50;99.90;19.50;93645.00;;;;7394499;19;20181;-77
2022/04/19 08:32:46;;;;;;;4.05;2.67;;;16.80;99.90;19.70;93674.00;;;;7395544;19;20196;-76
2022/04/19 08:35:14;;;;;;;4.30;2.67;;;17.20;99.90;19.20;93670.00;;;;7395208;19;20129;-79
2022/04/19 08:37:41;;;;;;;4.25;2.70;;;17.20;99.90;19.50;93633.00;;;;7396681;19;20596;-78
2022/04/19 08:40:16;;;;;;;5.00;2.45;;;;;20.20;93660.00;;;;7394779;19;20146;-78
2022/04/19 08:42:44;;;;;;;2.88;2.53;;;17.60;99.90;19.80;93660.00;;;;7397039;19;20149;-76
2022/04/19 08:45:19;;;;;;;3.95;2.50;;;17.50;99.90;20.10;93660.00;;;;7395286;19;20129;-76
2022/04/19 08:47:54;;;;;;;2.67;2.15;;;17.70;99.90;20.70;93638.00;;;;7395140;19;20137;-77
2022/04/19 08:50:21;;;;;;;2.60;2.38;;;17.80;99.90;20.60;93639.00;;;;7393419;19;20619;-78
2022/04/19 08:57:29;;;;;;;4.10;2.20;;;18.00;99.90;21.50;93654.00;;;;7396206;19;20144;-78
2022/04/19 08:58:30;;;;;;;3.50;2.67;;;17.80;99.90;21.00;93648.00;;;;7397456;19;20610;-77
2022/04/19 09:01:05;;;;;;;2.88;2.38;;;17.80;99.90;21.50;93641.00;;;;7398307;19;20143;-77
2022/04/19 09:03:34;;;;;;;3.58;2.70;;;17.90;99.90;21.10;93639.00;;;;7398111;19;20141;-77
2022/04/19 09:06:02;;;;;;;2.63;2.28;;;18.30;99.90;20.90;93657.00;;;;7397457;19;20534;-79
2022/04/19 09:08:36;;;;;;;3.83;2.70;;;18.60;99.90;21.50;93659.00;;;;7397579;19;20485;-78
2022/04/19 09:11:08;;;;;;;3.00;2.35;;;18.60;99.90;21.40;93659.00;;;;7395218;19;20148;-76
2022/04/19 09:13:36;;;;;;;2.75;2.47;;;18.20;99.90;21.20;93654.00;;;;7397877;19;20152;-78
2022/04/19 09:16:09;;;;;;;2.47;2.28;;;18.30;99.90;21.30;93646.00;;;;7396646;19;20834;-78
2022/04/19 09:18:37;;;;;;;2.53;2.33;;;18.30;99.90;21.70;93635.00;;;;7397030;19;20137;-76
2022/04/19 09:21:06;;;;;;;2.30;2.10;;;18.40;99.90;21.00;93645.00;;;;7393753;19;20638;-78
2022/04/19 09:23:55;;;;;;;2.97;2.20;;;18.30;99.90;20.60;93630.00;;;;7397170;19;20188;-77
2022/04/19 09:26:39;;;;;;;5.28;3.30;;;18.20;99.90;20.90;93651.00;;;;7396732;19;20141;-77
2022/04/19 09:29:27;;;;;;;3.22;2.42;;;18.00;99.90;21.20;93666.00;;;;7395621;19;20151;-77
2022/04/19 09:32:01;;;;;;;3.05;2.65;;;18.10;99.90;21.70;93658.00;;;;7396655;19;20478;-76
2022/04/19 09:34:36;;;;;;;3.35;2.22;;;18.30;99.90;21.30;93651.00;;;;7399122;19;20148;-76
2022/04/19 09:37:12;;;;;;;3.20;2.42;;;18.30;99.90;20.60;93664.00;;;;7399953;19;20453;-77
2022/04/19 09:39:52;;;;;;;3.67;2.75;;;17.90;99.90;20.50;93665.00;;;;7398321;19;20136;-77
2022/04/19 09:42:21;;;;;;;4.10;2.85;;;18.30;99.90;19.90;93638.00;;;;7397217;19;20491;-77
2022/04/19 09:44:57;;;;;;;2.65;2.38;;;18.50;99.90;20.00;93642.00;;;;7396397;19;20491;-77
2022/04/19 09:47:24;;;;;;;3.58;2.70;;;18.80;99.90;21.40;93649.00;;;;7397732;19;20140;-78
2022/04/19 09:49:54;;;;;;;2.58;2.38;;;18.80;99.90;21.50;93651.00;;;;7397395;19;20136;-76
2022/04/19 09:52:27;;;;;;;4.53;2.75;;;18.70;99.90;21.60;93646.00;;;;7397493;19;20136;-77
2022/04/19 09:55:05;;;;;;;3.15;2.78;;;18.80;99.90;21.30;93633.00;;;;7397556;19;20144;-77
2022/04/19 09:57:41;;;;;;;5.22;2.70;;;18.60;99.90;21.80;93647.00;;;;7397452;19;20518;-77
2022/04/19 10:00:14;;;;;;;4.75;2.70;;;18.80;99.90;21.40;93618.00;;;;7395260;19;20133;-77
2022/04/19 10:08:28;;;;;;;4.00;3.00;;;19.10;99.90;23.30;93628.00;;;;7398959;19;20160;-78
2022/04/19 10:10:56;;;;;;;4.95;3.05;;;19.60;99.90;23.10;93613.00;;;;7394243;19;20172;-78
2022/04/19 10:13:24;;;;;;;3.90;2.90;;;19.60;99.90;21.40;93606.00;;;;7397116;19;20144;-77
2022/04/19 10:16:08;;;;;;;7.68;3.20;;;19.60;99.90;22.40;93608.00;;;;7396436;19;20132;-77
2022/04/19 10:18:35;;;;;;;4.18;2.83;;;19.70;99.90;22.20;93622.00;;;;7396815;19;20714;-79
2022/04/19 10:21:20;;;;;;;2.95;2.65;;;19.70;99.90;21.50;93629.00;;;;7390843;19;20658;-77
2022/04/19 10:23:48;;;;;;;4.88;3.20;;;19.20;99.90;21.50;93633.00;;;;7395300;19;20125;-76
2022/04/19 10:26:24;;;;;;;4.43;2.85;;;18.90;99.90;21.00;93634.00;;;;7391858;19;20137;-76
2022/04/19 10:28:55;;;;;;;5.22;2.90;;;19.10;99.90;21.60;93627.00;;;;7391247;19;20141;-78
2022/04/19 10:31:34;;;;;;;3.85;2.97;;;19.20;99.90;20.50;93633.00;;;;7388151;19;20244;-77
2022/04/19 10:34:05;;;;;;;5.38;2.92;;;19.00;99.90;21.10;93636.00;;;;7392003;19;20140;-77
2022/04/19 10:36:40;;;;;;;3.40;3.10;;;19.10;99.90;21.40;93631.00;;;;7393294;19;20132;-80
2022/04/19 10:39:14;;;;;;;4.82;2.80;;;19.40;99.90;21.50;93637.00;;;;7390639;19;20625;-77
2022/04/19 10:42:03;;;;;;;4.68;2.85;;;19.50;99.90;21.20;93623.00;;;;7394408;19;20603;-79
2022/04/19 10:44:48;;;;;;;2.97;2.58;;;19.60;99.90;20.30;93601.00;;;;7394845;19;20140;-78
2022/04/19 10:47:24;;;;;;;4.65;3.30;;;19.80;99.90;21.80;93617.00;;;;7395704;19;20168;-77
2022/04/19 10:50:04;;;;;;;3.50;3.20;;;19.90;99.90;22.10;93619.00;;;;7396192;19;20113;-77
2022/04/19 10:55:12;;;;;;;4.20;3.33;;;19.80;99.90;20.60;93622.00;;;;7394700;19;20608;-76
2022/04/19 10:58:18;;;;;;;3.67;3.25;;;20.10;99.90;22.00;93620.00;;;;7395359;19;20226;-77
2022/04/19 11:00:48;;;;;;;4.55;3.75;;;20.30;99.90;22.20;93614.00;;;;7394260;19;20174;-78
2022/04/19 11:03:35;;;;;;;4.25;3.50;;;20.40;99.90;21.90;93616.00;;;;7396548;19;20125;-76
2022/04/19 11:06:05;;;;;;;3.50;3.20;;;20.80;99.90;23.00;93609.00;;;;7395605;19;20159;-76
2022/04/19 11:08:38;;;;;;;4.50;3.38;;;21.40;99.90;23.40;93603.00;;;;7395143;19;20200;-77
2022/04/19 11:11:20;;;;;;;4.55;3.22;;;22.20;99.90;22.70;93602.00;;;;7392833;19;20184;-77
2022/04/19 11:14:29;;;;;;;4.45;3.20;;;22.40;99.90;24.00;93598.00;;;;7394241;19;20485;-77
2022/04/19 11:17:25;;;;;;;4.13;3.72;;;22.10;99.90;23.10;93594.00;;;;7393885;19;20169;-76
2022/04/19 11:20:19;;;;;;;5.03;3.25;;;21.60;99.90;23.20;93571.00;;;;7394075;19;20191;-76
2022/04/19 11:22:51;;;;;;;4.32;3.63;;;21.20;99.90;23.20;93577.00;;;;7393089;19;20600;-78
2022/04/19 11:25:57;;;;;;;3.90;3.28;;;21.20;99.90;24.10;93593.00;;;;7394209;19;20156;-79
2022/04/19 11:28:30;;;;;;;3.15;2.80;;;21.20;99.90;23.80;93597.00;;;;7392929;19;20216;-78
2022/04/19 11:31:03;;;;;;;3.72;3.00;;;21.50;99.90;24.30;93586.00;;;;7393001;19;20121;-76
2022/04/19 11:33:33;;;;;;;4.47;3.40;;;21.60;99.90;24.00;93570.00;;;;7394897;19;20169;-78
2022/04/19 11:36:13;;;;;;;4.32;3.60;;;21.40;99.90;23.20;93588.00;;;;7393036;19;20148;-76
2022/04/19 11:38:50;;;;;;;3.58;2.85;;;21.20;99.90;22.80;93570.00;;;;7395913;19;20136;-78
2022/04/19 11:46:46;;;;;;;5.00;3.20;;;20.50;99.90;22.50;93574.00;;;;7402044;19;20140;-76
2022/04/19 11:49:20;;;;;;;3.50;3.20;;;20.20;99.90;23.00;93581.00;;;;7401191;19;20151;-76
2022/04/19 11:51:52;;;;;;;5.72;3.58;;;20.70;99.90;23.40;93576.00;;;;7398253;19;20616;-77
2022/04/19 11:54:23;;;;;;;4.30;3.45;;;21.30;99.90;23.30;93569.00;;;;7399924;19;20149;-77
2022/04/19 11:57:00;;;;;;;4.25;3.22;;;21.60;99.90;23.30;93583.00;;;;7400951;19;20141;-77
2022/04/19 11:59:39;;;;;;;3.80;3.50;;;21.50;99.90;22.80;93583.00;;;;7398162;19;20153;-77
2022/04/19 12:02:33;;;;;;;4.35;3.30;;;21.00;99.90;21.70;93581.00;;;;7397115;19;20148;-76
2022/04/19 12:05:03;;;;;;;3.83;3.25;;;21.10;99.90;22.00;93575.00;;;;7397829;19;20212;-77
2022/04/19 12:07:45;;;;;;;5.00;3.50;;;20.20;99.90;23.50;93582.00;;;;7397654;19;20176;-76
2022/04/19 12:10:14;;;;;;;4.20;3.40;;;20.60;99.90;23.30;93559.00;;;;7397318;19;20638;-75